sensor_id;sensor_type;location;lat;lon;timestamp;P1;durP1;ratioP1;P2;durP2;ratioP2
21289;SDS011;10804;48.988;2.408;2023-02-21T00:01:59;0.10;;;0.10;;
21289;SDS011;10804;48.988;2.408;2023-02-21T00:04:44;0.10;;;0.10;;
21289;SDS011;10804;48.988;2.408;2023-02-21T00:07:29;0.10;;;0.10;;
21289;SDS011;10804;48.988;2.408;2023-02-21T00:10:15;0.10;;;0.10;;
21289;SDS011;10804;48.988;2.408;2023-02-21T00:12:59;0.10;;;0.10;;
21289;SDS011;10804;48.988;2.408;2023-02-21T00:15:44;0.10;;;0.10;;
21289;SDS011;10804;48.988;2.408;2023-02-21T00:18:32;0.10;;;0.10;;
21289;SDS011;10804;48.988;2.408;2023-02-21T00:21:17;0.10;;;0.10;;
21289;SDS011;10804;48.988;2.408;2023-02-21T00:24:02;0.10;;;0.10;;
21289;SDS011;10804;48.988;2.408;2023-02-21T00:26:49;0.10;;;0.10;;
21289;SDS011;10804;48.988;2.408;2023-02-21T00:29:33;0.10;;;0.10;;
21289;SDS011;10804;48.988;2.408;2023-02-21T00:32:18;0.10;;;0.10;;
21289;SDS011;10804;48.988;2.408;2023-02-21T00:35:03;0.10;;;0.10;;
21289;SDS011;10804;48.988;2.408;2023-02-21T00:37:48;0.10;;;0.10;;
21289;SDS011;10804;48.988;2.408;2023-02-21T00:40:33;0.10;;;0.10;;
21289;SDS011;10804;48.988;2.408;2023-02-21T00:43:19;0.10;;;0.10;;
21289;SDS011;10804;48.988;2.408;2023-02-21T00:46:11;0.10;;;0.10;;
21289;SDS011;10804;48.988;2.408;2023-02-21T00:48:56;0.10;;;0.10;;
21289;SDS011;10804;48.988;2.408;2023-02-21T00:51:41;0.10;;;0.10;;
21289;SDS011;10804;48.988;2.408;2023-02-21T00:54:26;0.10;;;0.10;;
21289;SDS011;10804;48.988;2.408;2023-02-21T00:57:11;0.10;;;0.10;;
21289;SDS011;10804;48.988;2.408;2023-02-21T00:59:58;0.10;;;0.10;;
21289;SDS011;10804;48.988;2.408;2023-02-21T01:02:43;0.10;;;0.10;;
21289;SDS011;10804;48.988;2.408;2023-02-21T01:05:30;0.10;;;0.10;;
21289;SDS011;10804;48.988;2.408;2023-02-21T01:08:15;0.10;;;0.10;;
21289;SDS011;10804;48.988;2.408;2023-02-21T01:11:00;0.10;;;0.10;;
21289;SDS011;10804;48.988;2.408;2023-02-21T01:13:45;0.10;;;0.10;;
21289;SDS011;10804;48.988;2.408;2023-02-21T01:16:32;0.10;;;0.10;;
21289;SDS011;10804;48.988;2.408;2023-02-21T01:19:17;0.10;;;0.10;;
21289;SDS011;10804;48.988;2.408;2023-02-21T01:22:02;0.10;;;0.10;;
21289;SDS011;10804;48.988;2.408;2023-02-21T01:24:48;0.10;;;0.10;;
21289;SDS011;10804;48.988;2.408;2023-02-21T01:27:34;0.10;;;0.10;;
21289;SDS011;10804;48.988;2.408;2023-02-21T01:30:19;0.10;;;0.10;;
21289;SDS011;10804;48.988;2.408;2023-02-21T01:34:01;0.10;;;0.10;;
21289;SDS011;10804;48.988;2.408;2023-02-21T01:36:46;0.10;;;0.10;;
21289;SDS011;10804;48.988;2.408;2023-02-21T01:49:16;0.10;;;0.10;;
21289;SDS011;10804;48.988;2.408;2023-02-21T01:52:29;0.10;;;0.10;;
21289;SDS011;10804;48.988;2.408;2023-02-21T01:55:13;0.10;;;0.10;;
21289;SDS011;10804;48.988;2.408;2023-02-21T01:58:01;0.10;;;0.10;;
21289;SDS011;10804;48.988;2.408;2023-02-21T02:00:46;0.10;;;0.10;;
21289;SDS011;10804;48.988;2.408;2023-02-21T02:03:31;0.10;;;0.10;;
21289;SDS011;10804;48.988;2.408;2023-02-21T02:06:19;0.10;;;0.10;;
21289;SDS011;10804;48.988;2.408;2023-02-21T02:09:14;0.10;;;0.10;;
21289;SDS011;10804;48.988;2.408;2023-02-21T02:12:13;0.10;;;0.10;;
21289;SDS011;10804;48.988;2.408;2023-02-21T02:14:57;0.10;;;0.10;;
21289;SDS011;10804;48.988;2.408;2023-02-21T02:17:36;0.10;;;0.10;;
21289;SDS011;10804;48.988;2.408;2023-02-21T02:20:28;0.10;;;0.10;;
21289;SDS011;10804;48.988;2.408;2023-02-21T02:26:38;0.10;;;0.10;;
21289;SDS011;10804;48.988;2.408;2023-02-21T02:29:30;0.10;;;0.10;;
21289;SDS011;10804;48.988;2.408;2023-02-21T02:32:15;0.10;;;0.10;;
21289;SDS011;10804;48.988;2.408;2023-02-21T02:34:57;0.10;;;0.10;;
21289;SDS011;10804;48.988;2.408;2023-02-21T02:37:32;0.10;;;0.10;;
21289;SDS011;10804;48.988;2.408;2023-02-21T02:40:06;0.10;;;0.10;;
21289;SDS011;10804;48.988;2.408;2023-02-21T02:42:47;0.10;;;0.10;;
21289;SDS011;10804;48.988;2.408;2023-02-21T02:45:25;0.10;;;0.10;;
21289;SDS011;10804;48.988;2.408;2023-02-21T02:48:00;0.10;;;0.10;;
21289;SDS011;10804;48.988;2.408;2023-02-21T02:50:33;0.10;;;0.10;;
21289;SDS011;10804;48.988;2.408;2023-02-21T02:53:02;0.10;;;0.10;;
21289;SDS011;10804;48.988;2.408;2023-02-21T02:55:39;0.10;;;0.10;;
21289;SDS011;10804;48.988;2.408;2023-02-21T02:58:11;0.10;;;0.10;;
21289;SDS011;10804;48.988;2.408;2023-02-21T03:00:39;0.10;;;0.10;;
21289;SDS011;10804;48.988;2.408;2023-02-21T03:03:28;0.10;;;0.10;;
21289;SDS011;10804;48.988;2.408;2023-02-21T03:06:19;0.10;;;0.10;;
21289;SDS011;10804;48.988;2.408;2023-02-21T03:08:53;0.10;;;0.10;;
21289;SDS011;10804;48.988;2.408;2023-02-21T03:11:28;0.10;;;0.10;;
21289;SDS011;10804;48.988;2.408;2023-02-21T03:13:56;0.10;;;0.10;;
21289;SDS011;10804;48.988;2.408;2023-02-21T03:16:32;0.10;;;0.10;;
21289;SDS011;10804;48.988;2.408;2023-02-21T03:19:06;0.10;;;0.10;;
21289;SDS011;10804;48.988;2.408;2023-02-21T03:21:40;0.10;;;0.10;;
21289;SDS011;10804;48.988;2.408;2023-02-21T03:24:12;0.10;;;0.10;;
21289;SDS011;10804;48.988;2.408;2023-02-21T03:26:43;0.10;;;0.10;;
21289;SDS011;10804;48.988;2.408;2023-02-21T03:29:32;0.20;;;0.20;;
21289;SDS011;10804;48.988;2.408;2023-02-21T03:32:02;0.10;;;0.10;;
21289;SDS011;10804;48.988;2.408;2023-02-21T03:34:35;0.10;;;0.10;;
21289;SDS011;10804;48.988;2.408;2023-02-21T03:37:05;0.10;;;0.10;;
21289;SDS011;10804;48.988;2.408;2023-02-21T03:39:34;0.10;;;0.10;;
21289;SDS011;10804;48.988;2.408;2023-02-21T03:42:01;0.20;;;0.20;;
21289;SDS011;10804;48.988;2.408;2023-02-21T03:44:29;0.10;;;0.10;;
21289;SDS011;10804;48.988;2.408;2023-02-21T03:46:57;0.10;;;0.10;;
21289;SDS011;10804;48.988;2.408;2023-02-21T03:49:24;0.10;;;0.10;;
21289;SDS011;10804;48.988;2.408;2023-02-21T03:51:52;0.10;;;0.10;;
21289;SDS011;10804;48.988;2.408;2023-02-21T03:54:21;0.10;;;0.10;;
21289;SDS011;10804;48.988;2.408;2023-02-21T03:56:51;0.10;;;0.10;;
21289;SDS011;10804;48.988;2.408;2023-02-21T03:59:24;0.20;;;0.20;;
21289;SDS011;10804;48.988;2.408;2023-02-21T04:01:52;0.20;;;0.20;;
21289;SDS011;10804;48.988;2.408;2023-02-21T04:04:21;0.10;;;0.10;;
21289;SDS011;10804;48.988;2.408;2023-02-21T04:06:56;0.10;;;0.10;;
21289;SDS011;10804;48.988;2.408;2023-02-21T04:09:26;0.10;;;0.10;;
21289;SDS011;10804;48.988;2.408;2023-02-21T04:11:54;0.17;;;0.17;;
21289;SDS011;10804;48.988;2.408;2023-02-21T04:14:21;0.10;;;0.10;;
21289;SDS011;10804;48.988;2.408;2023-02-21T04:16:49;0.20;;;0.20;;
21289;SDS011;10804;48.988;2.408;2023-02-21T04:19:17;0.10;;;0.10;;
21289;SDS011;10804;48.988;2.408;2023-02-21T04:21:44;0.10;;;0.10;;
21289;SDS011;10804;48.988;2.408;2023-02-21T04:24:12;0.20;;;0.20;;
21289;SDS011;10804;48.988;2.408;2023-02-21T04:26:41;0.20;;;0.20;;
21289;SDS011;10804;48.988;2.408;2023-02-21T04:29:09;0.20;;;0.20;;
21289;SDS011;10804;48.988;2.408;2023-02-21T04:31:38;0.20;;;0.20;;
21289;SDS011;10804;48.988;2.408;2023-02-21T04:34:09;0.10;;;0.10;;
21289;SDS011;10804;48.988;2.408;2023-02-21T04:36:37;0.20;;;0.20;;
21289;SDS011;10804;48.988;2.408;2023-02-21T04:39:05;0.20;;;0.20;;
21289;SDS011;10804;48.988;2.408;2023-02-21T04:41:33;0.20;;;0.20;;
21289;SDS011;10804;48.988;2.408;2023-02-21T04:44:03;0.20;;;0.20;;
21289;SDS011;10804;48.988;2.408;2023-02-21T04:46:32;0.10;;;0.10;;
21289;SDS011;10804;48.988;2.408;2023-02-21T04:49:00;0.10;;;0.10;;
21289;SDS011;10804;48.988;2.408;2023-02-21T04:51:28;0.20;;;0.20;;
21289;SDS011;10804;48.988;2.408;2023-02-21T04:53:55;0.20;;;0.20;;
21289;SDS011;10804;48.988;2.408;2023-02-21T04:56:23;0.20;;;0.20;;
21289;SDS011;10804;48.988;2.408;2023-02-21T04:58:52;0.10;;;0.10;;
21289;SDS011;10804;48.988;2.408;2023-02-21T05:01:20;0.13;;;0.13;;
21289;SDS011;10804;48.988;2.408;2023-02-21T05:03:48;0.20;;;0.20;;
21289;SDS011;10804;48.988;2.408;2023-02-21T05:06:16;0.20;;;0.20;;
21289;SDS011;10804;48.988;2.408;2023-02-21T05:08:44;0.10;;;0.10;;
21289;SDS011;10804;48.988;2.408;2023-02-21T05:11:12;0.10;;;0.10;;
21289;SDS011;10804;48.988;2.408;2023-02-21T05:13:39;0.20;;;0.20;;
21289;SDS011;10804;48.988;2.408;2023-02-21T05:16:07;0.20;;;0.20;;
21289;SDS011;10804;48.988;2.408;2023-02-21T05:18:35;0.20;;;0.20;;
21289;SDS011;10804;48.988;2.408;2023-02-21T05:21:04;0.20;;;0.20;;
21289;SDS011;10804;48.988;2.408;2023-02-21T05:23:32;0.20;;;0.20;;
21289;SDS011;10804;48.988;2.408;2023-02-21T05:26:01;0.10;;;0.10;;
21289;SDS011;10804;48.988;2.408;2023-02-21T05:28:29;0.10;;;0.10;;
21289;SDS011;10804;48.988;2.408;2023-02-21T05:30:57;0.20;;;0.20;;
21289;SDS011;10804;48.988;2.408;2023-02-21T05:33:24;0.20;;;0.20;;
21289;SDS011;10804;48.988;2.408;2023-02-21T05:35:53;0.20;;;0.20;;
21289;SDS011;10804;48.988;2.408;2023-02-21T05:38:23;0.20;;;0.20;;
21289;SDS011;10804;48.988;2.408;2023-02-21T05:40:52;0.10;;;0.10;;
21289;SDS011;10804;48.988;2.408;2023-02-21T05:43:19;0.20;;;0.20;;
21289;SDS011;10804;48.988;2.408;2023-02-21T05:45:47;0.10;;;0.10;;
21289;SDS011;10804;48.988;2.408;2023-02-21T05:48:14;0.20;;;0.20;;
21289;SDS011;10804;48.988;2.408;2023-02-21T05:50:42;0.20;;;0.20;;
21289;SDS011;10804;48.988;2.408;2023-02-21T05:53:11;0.20;;;0.20;;
21289;SDS011;10804;48.988;2.408;2023-02-21T05:55:38;0.20;;;0.20;;
21289;SDS011;10804;48.988;2.408;2023-02-21T05:58:06;0.20;;;0.20;;
21289;SDS011;10804;48.988;2.408;2023-02-21T06:00:33;0.20;;;0.20;;
21289;SDS011;10804;48.988;2.408;2023-02-21T06:03:00;0.20;;;0.20;;
21289;SDS011;10804;48.988;2.408;2023-02-21T06:05:27;0.20;;;0.20;;
21289;SDS011;10804;48.988;2.408;2023-02-21T06:07:55;0.20;;;0.20;;
21289;SDS011;10804;48.988;2.408;2023-02-21T06:10:23;0.20;;;0.20;;
21289;SDS011;10804;48.988;2.408;2023-02-21T06:12:51;0.20;;;0.20;;
21289;SDS011;10804;48.988;2.408;2023-02-21T06:15:18;0.10;;;0.10;;
21289;SDS011;10804;48.988;2.408;2023-02-21T06:17:45;0.10;;;0.10;;
21289;SDS011;10804;48.988;2.408;2023-02-21T06:20:13;0.20;;;0.20;;
21289;SDS011;10804;48.988;2.408;2023-02-21T06:22:41;0.20;;;0.20;;
21289;SDS011;10804;48.988;2.408;2023-02-21T06:25:09;0.20;;;0.20;;
21289;SDS011;10804;48.988;2.408;2023-02-21T06:27:38;0.17;;;0.17;;
21289;SDS011;10804;48.988;2.408;2023-02-21T06:30:05;0.10;;;0.10;;
21289;SDS011;10804;48.988;2.408;2023-02-21T06:32:33;0.20;;;0.20;;
21289;SDS011;10804;48.988;2.408;2023-02-21T06:35:00;0.10;;;0.10;;
21289;SDS011;10804;48.988;2.408;2023-02-21T06:37:28;0.20;;;0.20;;
21289;SDS011;10804;48.988;2.408;2023-02-21T06:39:55;0.10;;;0.10;;
21289;SDS011;10804;48.988;2.408;2023-02-21T06:42:22;0.20;;;0.20;;
21289;SDS011;10804;48.988;2.408;2023-02-21T06:44:51;0.20;;;0.20;;
21289;SDS011;10804;48.988;2.408;2023-02-21T06:47:18;0.10;;;0.10;;
21289;SDS011;10804;48.988;2.408;2023-02-21T06:49:46;0.10;;;0.10;;
21289;SDS011;10804;48.988;2.408;2023-02-21T06:52:13;0.10;;;0.10;;
21289;SDS011;10804;48.988;2.408;2023-02-21T06:54:40;0.20;;;0.20;;
21289;SDS011;10804;48.988;2.408;2023-02-21T06:57:07;0.13;;;0.13;;
21289;SDS011;10804;48.988;2.408;2023-02-21T06:59:35;0.20;;;0.20;;
21289;SDS011;10804;48.988;2.408;2023-02-21T07:02:04;0.17;;;0.17;;
21289;SDS011;10804;48.988;2.408;2023-02-21T07:04:31;0.10;;;0.10;;
21289;SDS011;10804;48.988;2.408;2023-02-21T07:06:59;0.10;;;0.10;;
21289;SDS011;10804;48.988;2.408;2023-02-21T07:09:26;0.10;;;0.10;;
21289;SDS011;10804;48.988;2.408;2023-02-21T07:11:53;0.10;;;0.10;;
21289;SDS011;10804;48.988;2.408;2023-02-21T07:14:20;0.10;;;0.10;;
21289;SDS011;10804;48.988;2.408;2023-02-21T07:16:48;0.13;;;0.13;;
21289;SDS011;10804;48.988;2.408;2023-02-21T07:19:17;0.20;;;0.20;;
21289;SDS011;10804;48.988;2.408;2023-02-21T07:21:44;0.20;;;0.20;;
21289;SDS011;10804;48.988;2.408;2023-02-21T07:24:12;0.10;;;0.10;;
21289;SDS011;10804;48.988;2.408;2023-02-21T07:26:39;0.10;;;0.10;;
21289;SDS011;10804;48.988;2.408;2023-02-21T07:29:06;0.20;;;0.20;;
21289;SDS011;10804;48.988;2.408;2023-02-21T07:31:34;0.20;;;0.20;;
21289;SDS011;10804;48.988;2.408;2023-02-21T07:34:01;0.20;;;0.20;;
21289;SDS011;10804;48.988;2.408;2023-02-21T07:36:30;0.10;;;0.10;;
21289;SDS011;10804;48.988;2.408;2023-02-21T07:38:57;0.10;;;0.10;;
21289;SDS011;10804;48.988;2.408;2023-02-21T07:41:24;0.17;;;0.17;;
21289;SDS011;10804;48.988;2.408;2023-02-21T07:43:52;0.10;;;0.10;;
21289;SDS011;10804;48.988;2.408;2023-02-21T07:46:19;0.10;;;0.10;;
21289;SDS011;10804;48.988;2.408;2023-02-21T07:48:46;0.10;;;0.10;;
21289;SDS011;10804;48.988;2.408;2023-02-21T07:51:13;0.20;;;0.20;;
21289;SDS011;10804;48.988;2.408;2023-02-21T07:53:42;0.10;;;0.10;;
21289;SDS011;10804;48.988;2.408;2023-02-21T07:56:09;0.20;;;0.20;;
21289;SDS011;10804;48.988;2.408;2023-02-21T07:58:37;0.10;;;0.10;;
21289;SDS011;10804;48.988;2.408;2023-02-21T08:01:05;0.20;;;0.20;;
21289;SDS011;10804;48.988;2.408;2023-02-21T08:03:33;0.10;;;0.10;;
21289;SDS011;10804;48.988;2.408;2023-02-21T08:06:02;0.10;;;0.10;;
21289;SDS011;10804;48.988;2.408;2023-02-21T08:08:30;0.20;;;0.20;;
21289;SDS011;10804;48.988;2.408;2023-02-21T08:10:58;0.13;;;0.13;;
21289;SDS011;10804;48.988;2.408;2023-02-21T08:13:25;0.10;;;0.10;;
21289;SDS011;10804;48.988;2.408;2023-02-21T08:15:53;0.20;;;0.20;;
21289;SDS011;10804;48.988;2.408;2023-02-21T08:18:20;0.10;;;0.10;;
21289;SDS011;10804;48.988;2.408;2023-02-21T08:20:49;0.10;;;0.10;;
21289;SDS011;10804;48.988;2.408;2023-02-21T08:23:17;0.20;;;0.20;;
21289;SDS011;10804;48.988;2.408;2023-02-21T08:25:45;0.10;;;0.10;;
21289;SDS011;10804;48.988;2.408;2023-02-21T08:28:14;0.20;;;0.20;;
21289;SDS011;10804;48.988;2.408;2023-02-21T08:30:42;0.10;;;0.10;;
21289;SDS011;10804;48.988;2.408;2023-02-21T08:33:10;0.10;;;0.10;;
21289;SDS011;10804;48.988;2.408;2023-02-21T08:35:37;0.20;;;0.20;;
21289;SDS011;10804;48.988;2.408;2023-02-21T08:38:04;0.20;;;0.20;;
21289;SDS011;10804;48.988;2.408;2023-02-21T08:40:33;0.10;;;0.10;;
21289;SDS011;10804;48.988;2.408;2023-02-21T08:43:00;0.10;;;0.10;;
21289;SDS011;10804;48.988;2.408;2023-02-21T08:45:29;0.10;;;0.10;;
21289;SDS011;10804;48.988;2.408;2023-02-21T08:47:57;0.20;;;0.20;;
21289;SDS011;10804;48.988;2.408;2023-02-21T08:50:26;0.20;;;0.20;;
21289;SDS011;10804;48.988;2.408;2023-02-21T08:52:54;0.20;;;0.20;;
21289;SDS011;10804;48.988;2.408;2023-02-21T08:55:22;0.10;;;0.10;;
21289;SDS011;10804;48.988;2.408;2023-02-21T08:57:51;0.20;;;0.20;;
21289;SDS011;10804;48.988;2.408;2023-02-21T09:00:20;0.20;;;0.20;;
21289;SDS011;10804;48.988;2.408;2023-02-21T09:02:50;0.10;;;0.10;;
21289;SDS011;10804;48.988;2.408;2023-02-21T09:05:19;0.20;;;0.20;;
21289;SDS011;10804;48.988;2.408;2023-02-21T09:07:50;0.20;;;0.20;;
21289;SDS011;10804;48.988;2.408;2023-02-21T09:10:20;0.20;;;0.20;;
21289;SDS011;10804;48.988;2.408;2023-02-21T09:12:47;0.20;;;0.20;;
21289;SDS011;10804;48.988;2.408;2023-02-21T09:15:15;0.17;;;0.17;;
21289;SDS011;10804;48.988;2.408;2023-02-21T09:17:43;0.10;;;0.10;;
21289;SDS011;10804;48.988;2.408;2023-02-21T09:20:14;0.10;;;0.10;;
21289;SDS011;10804;48.988;2.408;2023-02-21T09:22:44;0.20;;;0.20;;
21289;SDS011;10804;48.988;2.408;2023-02-21T09:25:12;0.20;;;0.20;;
21289;SDS011;10804;48.988;2.408;2023-02-21T09:27:41;0.10;;;0.10;;
21289;SDS011;10804;48.988;2.408;2023-02-21T09:30:09;0.20;;;0.20;;
21289;SDS011;10804;48.988;2.408;2023-02-21T09:32:38;0.13;;;0.13;;
21289;SDS011;10804;48.988;2.408;2023-02-21T09:35:06;0.20;;;0.20;;
21289;SDS011;10804;48.988;2.408;2023-02-21T09:37:37;0.20;;;0.20;;
21289;SDS011;10804;48.988;2.408;2023-02-21T09:40:06;0.13;;;0.13;;
21289;SDS011;10804;48.988;2.408;2023-02-21T09:42:41;0.10;;;0.10;;
21289;SDS011;10804;48.988;2.408;2023-02-21T09:45:12;0.10;;;0.10;;
21289;SDS011;10804;48.988;2.408;2023-02-21T09:47:41;0.10;;;0.10;;
21289;SDS011;10804;48.988;2.408;2023-02-21T09:50:12;0.10;;;0.10;;
21289;SDS011;10804;48.988;2.408;2023-02-21T09:52:42;0.20;;;0.20;;
21289;SDS011;10804;48.988;2.408;2023-02-21T09:55:12;0.10;;;0.10;;
21289;SDS011;10804;48.988;2.408;2023-02-21T09:57:46;0.10;;;0.10;;
21289;SDS011;10804;48.988;2.408;2023-02-21T10:00:17;0.10;;;0.10;;
21289;SDS011;10804;48.988;2.408;2023-02-21T10:02:51;0.10;;;0.10;;
21289;SDS011;10804;48.988;2.408;2023-02-21T10:05:26;0.13;;;0.13;;
21289;SDS011;10804;48.988;2.408;2023-02-21T10:08:07;0.10;;;0.10;;
21289;SDS011;10804;48.988;2.408;2023-02-21T10:10:42;0.10;;;0.10;;
21289;SDS011;10804;48.988;2.408;2023-02-21T10:13:17;0.10;;;0.10;;
21289;SDS011;10804;48.988;2.408;2023-02-21T10:15:53;0.10;;;0.10;;
21289;SDS011;10804;48.988;2.408;2023-02-21T10:18:27;0.10;;;0.10;;
21289;SDS011;10804;48.988;2.408;2023-02-21T10:21:07;0.10;;;0.10;;
21289;SDS011;10804;48.988;2.408;2023-02-21T10:23:39;0.10;;;0.10;;
21289;SDS011;10804;48.988;2.408;2023-02-21T10:26:09;0.10;;;0.10;;
21289;SDS011;10804;48.988;2.408;2023-02-21T10:28:39;0.10;;;0.10;;
21289;SDS011;10804;48.988;2.408;2023-02-21T10:31:10;0.10;;;0.10;;
21289;SDS011;10804;48.988;2.408;2023-02-21T10:33:42;0.10;;;0.10;;
21289;SDS011;10804;48.988;2.408;2023-02-21T10:36:10;0.10;;;0.10;;
21289;SDS011;10804;48.988;2.408;2023-02-21T10:38:42;0.10;;;0.10;;
21289;SDS011;10804;48.988;2.408;2023-02-21T10:41:19;0.10;;;0.10;;
21289;SDS011;10804;48.988;2.408;2023-02-21T10:43:48;0.10;;;0.10;;
21289;SDS011;10804;48.988;2.408;2023-02-21T10:46:21;0.10;;;0.10;;
21289;SDS011;10804;48.988;2.408;2023-02-21T10:48:52;0.10;;;0.10;;
21289;SDS011;10804;48.988;2.408;2023-02-21T10:51:28;0.10;;;0.10;;
21289;SDS011;10804;48.988;2.408;2023-02-21T10:56:45;0.10;;;0.10;;
21289;SDS011;10804;48.988;2.408;2023-02-21T10:59:18;0.10;;;0.10;;
21289;SDS011;10804;48.988;2.408;2023-02-21T11:01:48;0.10;;;0.10;;
21289;SDS011;10804;48.988;2.408;2023-02-21T11:04:22;0.10;;;0.10;;
21289;SDS011;10804;48.988;2.408;2023-02-21T11:06:53;0.10;;;0.10;;
21289;SDS011;10804;48.988;2.408;2023-02-21T11:09:27;0.10;;;0.10;;
21289;SDS011;10804;48.988;2.408;2023-02-21T11:12:02;0.10;;;0.10;;
21289;SDS011;10804;48.988;2.408;2023-02-21T11:14:32;0.10;;;0.10;;
21289;SDS011;10804;48.988;2.408;2023-02-21T11:17:03;0.10;;;0.10;;
21289;SDS011;10804;48.988;2.408;2023-02-21T11:19:43;0.10;;;0.10;;
21289;SDS011;10804;48.988;2.408;2023-02-21T11:22:13;0.10;;;0.10;;
21289;SDS011;10804;48.988;2.408;2023-02-21T11:24:48;0.00;;;0.00;;
21289;SDS011;10804;48.988;2.408;2023-02-21T11:27:19;0.10;;;0.10;;
21289;SDS011;10804;48.988;2.408;2023-02-21T11:29:47;0.10;;;0.10;;
21289;SDS011;10804;48.988;2.408;2023-02-21T11:32:22;0.10;;;0.10;;
21289;SDS011;10804;48.988;2.408;2023-02-21T11:34:59;0.10;;;0.10;;
21289;SDS011;10804;48.988;2.408;2023-02-21T11:37:29;0.10;;;0.10;;
21289;SDS011;10804;48.988;2.408;2023-02-21T11:39:58;0.08;;;0.08;;
21289;SDS011;10804;48.988;2.408;2023-02-21T11:42:27;0.10;;;0.10;;
21289;SDS011;10804;48.988;2.408;2023-02-21T11:45:09;0.10;;;0.10;;
21289;SDS011;10804;48.988;2.408;2023-02-21T11:47:44;0.10;;;0.10;;
21289;SDS011;10804;48.988;2.408;2023-02-21T11:50:20;0.10;;;0.10;;
21289;SDS011;10804;48.988;2.408;2023-02-21T11:52:54;0.08;;;0.08;;
21289;SDS011;10804;48.988;2.408;2023-02-21T11:55:28;0.05;;;0.05;;
21289;SDS011;10804;48.988;2.408;2023-02-21T11:58:02;0.10;;;0.10;;
21289;SDS011;10804;48.988;2.408;2023-02-21T12:00:42;0.00;;;0.00;;
21289;SDS011;10804;48.988;2.408;2023-02-21T12:03:32;0.10;;;0.10;;
21289;SDS011;10804;48.988;2.408;2023-02-21T12:06:22;0.10;;;0.10;;
21289;SDS011;10804;48.988;2.408;2023-02-21T12:08:55;0.00;;;0.00;;
21289;SDS011;10804;48.988;2.408;2023-02-21T12:11:30;0.00;;;0.00;;
21289;SDS011;10804;48.988;2.408;2023-02-21T12:14:23;0.00;;;0.00;;
21289;SDS011;10804;48.988;2.408;2023-02-21T12:17:24;0.00;;;0.00;;
21289;SDS011;10804;48.988;2.408;2023-02-21T12:20:06;0.10;;;0.10;;
21289;SDS011;10804;48.988;2.408;2023-02-21T12:22:47;0.00;;;0.00;;
21289;SDS011;10804;48.988;2.408;2023-02-21T12:25:26;0.00;;;0.00;;
21289;SDS011;10804;48.988;2.408;2023-02-21T12:28:02;0.10;;;0.10;;
21289;SDS011;10804;48.988;2.408;2023-02-21T12:30:44;0.00;;;0.00;;
21289;SDS011;10804;48.988;2.408;2023-02-21T12:33:25;0.00;;;0.00;;
21289;SDS011;10804;48.988;2.408;2023-02-21T12:39:11;0.03;;;0.03;;
21289;SDS011;10804;48.988;2.408;2023-02-21T12:41:50;0.10;;;0.10;;
21289;SDS011;10804;48.988;2.408;2023-02-21T12:44:40;0.00;;;0.00;;
21289;SDS011;10804;48.988;2.408;2023-02-21T12:47:18;0.10;;;0.10;;
21289;SDS011;10804;48.988;2.408;2023-02-21T12:49:50;0.10;;;0.10;;
21289;SDS011;10804;48.988;2.408;2023-02-21T12:52:25;0.00;;;0.00;;
21289;SDS011;10804;48.988;2.408;2023-02-21T12:54:57;0.00;;;0.00;;
21289;SDS011;10804;48.988;2.408;2023-02-21T12:57:30;0.00;;;0.00;;
21289;SDS011;10804;48.988;2.408;2023-02-21T13:00:05;0.00;;;0.00;;
21289;SDS011;10804;48.988;2.408;2023-02-21T13:02:43;0.00;;;0.00;;
21289;SDS011;10804;48.988;2.408;2023-02-21T13:05:22;0.00;;;0.00;;
21289;SDS011;10804;48.988;2.408;2023-02-21T13:07:59;0.00;;;0.00;;
21289;SDS011;10804;48.988;2.408;2023-02-21T13:10:30;0.00;;;0.00;;
21289;SDS011;10804;48.988;2.408;2023-02-21T13:13:03;0.00;;;0.00;;
21289;SDS011;10804;48.988;2.408;2023-02-21T13:15:37;0.10;;;0.10;;
21289;SDS011;10804;48.988;2.408;2023-02-21T13:18:10;0.00;;;0.00;;
21289;SDS011;10804;48.988;2.408;2023-02-21T13:20:45;0.00;;;0.00;;
21289;SDS011;10804;48.988;2.408;2023-02-21T13:26:34;0.00;;;0.00;;
21289;SDS011;10804;48.988;2.408;2023-02-21T13:29:24;0.00;;;0.00;;
21289;SDS011;10804;48.988;2.408;2023-02-21T13:31:57;0.00;;;0.00;;
21289;SDS011;10804;48.988;2.408;2023-02-21T13:34:27;0.00;;;0.00;;
21289;SDS011;10804;48.988;2.408;2023-02-21T13:37:00;0.00;;;0.00;;
21289;SDS011;10804;48.988;2.408;2023-02-21T13:39:31;0.00;;;0.00;;
21289;SDS011;10804;48.988;2.408;2023-02-21T13:42:03;0.00;;;0.00;;
21289;SDS011;10804;48.988;2.408;2023-02-21T13:44:34;0.00;;;0.00;;
21289;SDS011;10804;48.988;2.408;2023-02-21T13:47:12;0.00;;;0.00;;
21289;SDS011;10804;48.988;2.408;2023-02-21T13:49:45;0.00;;;0.00;;
21289;SDS011;10804;48.988;2.408;2023-02-21T13:55:22;0.00;;;0.00;;
21289;SDS011;10804;48.988;2.408;2023-02-21T13:57:51;0.00;;;0.00;;
21289;SDS011;10804;48.988;2.408;2023-02-21T14:07:11;0.00;;;0.00;;
21289;SDS011;10804;48.988;2.408;2023-02-21T14:09:39;0.00;;;0.00;;
21289;SDS011;10804;48.988;2.408;2023-02-21T14:12:07;0.00;;;0.00;;
21289;SDS011;10804;48.988;2.408;2023-02-21T14:14:37;0.00;;;0.00;;
21289;SDS011;10804;48.988;2.408;2023-02-21T14:17:07;0.00;;;0.00;;
21289;SDS011;10804;48.988;2.408;2023-02-21T14:19:40;0.00;;;0.00;;
21289;SDS011;10804;48.988;2.408;2023-02-21T14:22:12;0.00;;;0.00;;
21289;SDS011;10804;48.988;2.408;2023-02-21T14:24:42;0.00;;;0.00;;
21289;SDS011;10804;48.988;2.408;2023-02-21T14:27:36;0.00;;;0.00;;
21289;SDS011;10804;48.988;2.408;2023-02-21T14:30:14;0.00;;;0.00;;
21289;SDS011;10804;48.988;2.408;2023-02-21T14:33:06;0.00;;;0.00;;
21289;SDS011;10804;48.988;2.408;2023-02-21T14:35:37;0.00;;;0.00;;
21289;SDS011;10804;48.988;2.408;2023-02-21T14:38:16;0.00;;;0.00;;
21289;SDS011;10804;48.988;2.408;2023-02-21T14:40:52;0.00;;;0.00;;
21289;SDS011;10804;48.988;2.408;2023-02-21T14:43:42;0.00;;;0.00;;
21289;SDS011;10804;48.988;2.408;2023-02-21T14:46:31;0.00;;;0.00;;
21289;SDS011;10804;48.988;2.408;2023-02-21T14:52:26;0.00;;;0.00;;
21289;SDS011;10804;48.988;2.408;2023-02-21T14:55:17;0.00;;;0.00;;
21289;SDS011;10804;48.988;2.408;2023-02-21T15:00:56;0.00;;;0.00;;
21289;SDS011;10804;48.988;2.408;2023-02-21T15:03:32;0.00;;;0.00;;
21289;SDS011;10804;48.988;2.408;2023-02-21T15:06:05;0.00;;;0.00;;
21289;SDS011;10804;48.988;2.408;2023-02-21T15:08:39;0.00;;;0.00;;
21289;SDS011;10804;48.988;2.408;2023-02-21T15:14:10;0.00;;;0.00;;
21289;SDS011;10804;48.988;2.408;2023-02-21T15:16:48;0.00;;;0.00;;
21289;SDS011;10804;48.988;2.408;2023-02-21T15:19:19;0.00;;;0.00;;
21289;SDS011;10804;48.988;2.408;2023-02-21T15:24:57;0.00;;;0.00;;
21289;SDS011;10804;48.988;2.408;2023-02-21T15:27:29;0.00;;;0.00;;
21289;SDS011;10804;48.988;2.408;2023-02-21T15:30:04;0.00;;;0.00;;
21289;SDS011;10804;48.988;2.408;2023-02-21T15:32:33;0.00;;;0.00;;
21289;SDS011;10804;48.988;2.408;2023-02-21T15:35:02;0.00;;;0.00;;
21289;SDS011;10804;48.988;2.408;2023-02-21T15:37:32;0.00;;;0.00;;
21289;SDS011;10804;48.988;2.408;2023-02-21T15:40:03;0.00;;;0.00;;
21289;SDS011;10804;48.988;2.408;2023-02-21T15:42:38;0.00;;;0.00;;
21289;SDS011;10804;48.988;2.408;2023-02-21T15:45:08;0.00;;;0.00;;
21289;SDS011;10804;48.988;2.408;2023-02-21T15:47:42;0.00;;;0.00;;
21289;SDS011;10804;48.988;2.408;2023-02-21T15:50:12;0.00;;;0.00;;
21289;SDS011;10804;48.988;2.408;2023-02-21T15:52:43;0.00;;;0.00;;
21289;SDS011;10804;48.988;2.408;2023-02-21T15:55:15;0.00;;;0.00;;
21289;SDS011;10804;48.988;2.408;2023-02-21T15:57:59;0.00;;;0.00;;
21289;SDS011;10804;48.988;2.408;2023-02-21T16:00:29;0.00;;;0.00;;
21289;SDS011;10804;48.988;2.408;2023-02-21T16:05:54;0.00;;;0.00;;
21289;SDS011;10804;48.988;2.408;2023-02-21T16:08:35;0.00;;;0.00;;
21289;SDS011;10804;48.988;2.408;2023-02-21T16:11:04;0.00;;;0.00;;
21289;SDS011;10804;48.988;2.408;2023-02-21T16:13:35;0.00;;;0.00;;
21289;SDS011;10804;48.988;2.408;2023-02-21T16:16:03;0.00;;;0.00;;